Time;durP1;ratioP1;P1;durP2;ratioP2;P2;SDS_P1;SDS_P2;PMS_P1;PMS_P2;Temp;Humidity;BMP_temperature;BMP_pressure;BME280_temperature;BME280_humidity;BME280_pressure;Samples;Min_cycle;Max_cycle;Signal;HPM_P1;HPM_P2
2023/09/11 00:00:29;;;;;;;4.15;3.22;;;;;;;;;;4983709;28;20055;-79
2023/09/11 00:02:55;;;;;;;3.00;2.80;;;;;;;;;;4984771;28;20035;-79
2023/09/11 00:05:22;;;;;;;2.85;2.65;;;;;;;;;;4984727;28;20031;-79
2023/09/11 00:07:48;;;;;;;3.65;3.35;;;;;;;;;;4984971;28;20518;-79
2023/09/11 00:10:15;;;;;;;3.50;3.25;;;;;;;;;;5006356;28;20026;-79
2023/09/11 00:12:41;;;;;;;3.75;3.45;;;;;;;;;;5005482;28;20041;-79
2023/09/11 00:15:08;;;;;;;2.75;2.55;;;;;;;;;;5004404;28;20037;-78
2023/09/11 00:17:34;;;;;;;3.38;3.13;;;;;;;;;;5000365;28;20029;-78
2023/09/11 00:20:00;;;;;;;3.03;2.83;;;;;;;;;;4995451;28;20125;-78
2023/09/11 00:22:26;;;;;;;3.10;2.90;;;;;;;;;;5006243;28;20041;-78
2023/09/11 00:24:52;;;;;;;2.88;2.67;;;;;;;;;;5012245;28;20094;-77
2023/09/11 00:27:18;;;;;;;3.13;2.92;;;;;;;;;;5013746;28;20053;-76
2023/09/11 00:29:44;;;;;;;3.08;2.88;;;;;;;;;;5013508;28;20401;-77
2023/09/11 00:32:11;;;;;;;3.17;2.97;;;;;;;;;;5012864;28;20030;-78
2023/09/11 00:34:37;;;;;;;3.15;2.88;;;;;;;;;;5013472;28;20033;-75
2023/09/11 00:37:03;;;;;;;3.20;3.00;;;;;;;;;;4993363;28;20042;-79
2023/09/11 00:39:29;;;;;;;2.92;2.72;;;;;;;;;;5000878;28;20053;-78
2023/09/11 00:41:55;;;;;;;3.03;2.83;;;;;;;;;;5013816;28;20022;-77
2023/09/11 00:44:21;;;;;;;2.67;2.47;;;;;;;;;;5008110;28;20036;-76
2023/09/11 00:46:47;;;;;;;2.97;2.78;;;;;;;;;;5012150;28;20035;-78
2023/09/11 00:49:13;;;;;;;3.20;3.00;;;;;;;;;;5009787;28;20501;-78
2023/09/11 00:51:39;;;;;;;3.10;2.90;;;;;;;;;;5004915;28;20477;-77
2023/09/11 00:54:05;;;;;;;3.50;3.20;;;;;;;;;;4993143;28;20030;-77
2023/09/11 00:56:31;;;;;;;2.80;2.60;;;;;;;;;;4993311;28;20026;-78
2023/09/11 00:58:58;;;;;;;2.97;2.78;;;;;;;;;;4989395;28;20030;-78
2023/09/11 01:01:24;;;;;;;3.15;2.95;;;;;;;;;;4991402;28;20042;-77
2023/09/11 01:03:51;;;;;;;3.60;3.38;;;;;;;;;;4990548;28;20034;-78
2023/09/11 01:06:17;;;;;;;3.22;3.03;;;;;;;;;;4991215;28;20034;-79
2023/09/11 01:08:43;;;;;;;3.35;3.15;;;;;;;;;;4997595;28;20034;-78
2023/09/11 01:11:09;;;;;;;3.53;3.22;;;;;;;;;;5010008;28;20030;-79
2023/09/11 01:13:35;;;;;;;3.15;2.95;;;;;;;;;;5010752;28;20113;-78
2023/09/11 01:16:05;;;;;;;3.58;3.28;;;;;;;;;;5011003;28;20022;-79
2023/09/11 01:18:31;;;;;;;3.08;2.88;;;;;;;;;;5009599;28;20060;-79
2023/09/11 01:21:08;;;;;;;3.15;2.95;;;;;;;;;;5010601;28;20072;-79
2023/09/11 01:23:46;;;;;;;3.65;3.35;;;;;;;;;;5007269;28;20022;-78
2023/09/11 01:26:28;;;;;;;3.15;2.95;;;;;;;;;;5005224;28;20022;-78
2023/09/11 01:29:07;;;;;;;2.70;2.50;;;;;;;;;;5009847;28;20026;-78
2023/09/11 01:31:34;;;;;;;3.60;3.40;;;;;;;;;;5018274;28;20029;-76
2023/09/11 01:34:01;;;;;;;3.33;3.08;;;;;;;;;;5000825;28;20030;-77
2023/09/11 01:36:28;;;;;;;3.47;3.22;;;;;;;;;;4995568;28;20034;-78
2023/09/11 01:38:54;;;;;;;3.47;3.17;;;;;;;;;;4983494;28;20034;-79
2023/09/11 01:41:21;;;;;;;3.30;3.10;;;;;;;;;;5017745;28;20021;-78
2023/09/11 01:43:48;;;;;;;3.75;3.45;;;;;;;;;;5006071;28;20022;-78
2023/09/11 01:46:14;;;;;;;3.53;3.25;;;;;;;;;;5006834;28;20113;-79
2023/09/11 01:48:42;;;;;;;4.10;3.70;;;;;;;;;;5006499;28;20026;-79
2023/09/11 01:51:09;;;;;;;4.15;3.85;;;;;;;;;;5007282;28;20097;-77
2023/09/11 01:53:35;;;;;;;4.47;4.07;;;;;;;;;;5004805;28;20049;-79
2023/09/11 01:56:02;;;;;;;4.18;3.78;;;;;;;;;;5007582;28;20030;-78
2023/09/11 01:58:28;;;;;;;4.00;3.70;;;;;;;;;;5007373;28;20045;-79
2023/09/11 02:00:54;;;;;;;4.13;3.83;;;;;;;;;;5005317;28;20034;-79
2023/09/11 02:03:21;;;;;;;3.67;3.38;;;;;;;;;;5007299;28;20022;-79
2023/09/11 02:05:47;;;;;;;3.05;2.85;;;;;;;;;;5005807;28;20069;-78
2023/09/11 02:08:13;;;;;;;3.35;3.13;;;;;;;;;;5006549;28;20034;-77
2023/09/11 02:10:39;;;;;;;3.85;3.55;;;;;;;;;;5014186;28;20029;-76
2023/09/11 02:13:05;;;;;;;3.80;3.50;;;;;;;;;;4998557;28;20034;-78
2023/09/11 02:15:31;;;;;;;3.88;3.58;;;;;;;;;;5004956;28;20141;-77
2023/09/11 02:17:57;;;;;;;3.35;3.15;;;;;;;;;;5007892;28;20026;-78
2023/09/11 02:20:23;;;;;;;4.05;3.75;;;;;;;;;;5006787;28;20030;-77
2023/09/11 02:22:49;;;;;;;3.30;3.10;;;;;;;;;;5007131;28;20036;-79
2023/09/11 02:25:15;;;;;;;4.45;4.05;;;;;;;;;;5004008;28;20053;-78
2023/09/11 02:27:41;;;;;;;3.33;3.13;;;;;;;;;;4987204;28;20034;-78
2023/09/11 02:30:08;;;;;;;4.57;4.18;;;;;;;;;;4987255;28;20485;-80
2023/09/11 02:32:34;;;;;;;4.25;3.95;;;;;;;;;;4990134;28;20015;-77
2023/09/11 02:35:00;;;;;;;3.72;3.42;;;;;;;;;;4993166;28;20027;-76
2023/09/11 02:37:26;;;;;;;4.55;4.15;;;;;;;;;;4987490;28;20031;-78
2023/09/11 02:39:52;;;;;;;4.15;3.85;;;;;;;;;;4999856;28;20021;-78
2023/09/11 02:42:18;;;;;;;4.60;4.20;;;;;;;;;;5014178;28;20022;-77
2023/09/11 02:44:44;;;;;;;4.38;4.07;;;;;;;;;;5006506;28;20394;-78
2023/09/11 02:47:10;;;;;;;4.40;4.00;;;;;;;;;;5006551;28;20030;-78
2023/09/11 02:49:36;;;;;;;4.47;4.13;;;;;;;;;;5006368;28;20034;-79
2023/09/11 02:52:02;;;;;;;4.00;3.70;;;;;;;;;;5007633;28;20030;-78
2023/09/11 02:54:28;;;;;;;4.15;3.85;;;;;;;;;;5011047;28;20037;-78
2023/09/11 02:56:54;;;;;;;4.20;3.90;;;;;;;;;;5013927;28;20401;-83
2023/09/11 02:59:20;;;;;;;3.95;3.65;;;;;;;;;;5013153;28;20107;-81
2023/09/11 03:01:46;;;;;;;3.97;3.67;;;;;;;;;;5015383;28;20030;-81
2023/09/11 03:04:13;;;;;;;3.65;3.35;;;;;;;;;;5015264;28;20026;-81
2023/09/11 03:06:39;;;;;;;4.00;3.70;;;;;;;;;;5016328;28;20056;-81
2023/09/11 03:09:05;;;;;;;4.00;3.70;;;;;;;;;;5016044;28;20030;-79
2023/09/11 03:11:31;;;;;;;4.68;4.28;;;;;;;;;;5035806;28;20014;-81
2023/09/11 03:13:58;;;;;;;4.18;3.78;;;;;;;;;;5015611;28;20049;-79
2023/09/11 03:16:24;;;;;;;4.15;3.85;;;;;;;;;;5011145;28;20033;-81
2023/09/11 03:18:50;;;;;;;4.18;3.88;;;;;;;;;;5015568;28;20107;-83
2023/09/11 03:21:16;;;;;;;3.90;3.60;;;;;;;;;;5015468;28;20109;-82
2023/09/11 03:23:42;;;;;;;4.45;4.13;;;;;;;;;;5013387;28;20102;-82
2023/09/11 03:26:12;;;;;;;4.20;3.90;;;;;;;;;;5018619;28;20033;-82
2023/09/11 03:28:38;;;;;;;3.97;3.67;;;;;;;;;;5033294;28;20045;-82
2023/09/11 03:31:04;;;;;;;4.30;4.00;;;;;;;;;;5031969;28;20041;-82
2023/09/11 03:33:34;;;;;;;4.68;4.28;;;;;;;;;;4994714;28;20027;-84
2023/09/11 03:36:00;;;;;;;3.85;3.55;;;;;;;;;;4988648;28;20031;-82
2023/09/11 03:38:26;;;;;;;4.10;3.80;;;;;;;;;;4994739;28;20031;-84
2023/09/11 03:40:52;;;;;;;3.85;3.55;;;;;;;;;;4998447;28;20083;-84
2023/09/11 03:43:18;;;;;;;3.97;3.67;;;;;;;;;;4998094;28;20037;-83
2023/09/11 03:45:44;;;;;;;4.35;4.05;;;;;;;;;;4999104;28;20011;-82
2023/09/11 03:48:10;;;;;;;4.60;4.20;;;;;;;;;;4997902;28;20023;-84
2023/09/11 03:50:36;;;;;;;4.57;4.22;;;;;;;;;;4998784;28;20037;-78
2023/09/11 03:53:02;;;;;;;3.60;3.35;;;;;;;;;;4995355;28;20058;-78
2023/09/11 03:55:29;;;;;;;4.40;4.00;;;;;;;;;;4986290;28;20034;-81
2023/09/11 03:57:55;;;;;;;4.22;3.92;;;;;;;;;;4985356;28;20083;-81
2023/09/11 04:00:21;;;;;;;3.97;3.67;;;;;;;;;;4988315;28;20035;-81
2023/09/11 04:02:47;;;;;;;4.28;3.95;;;;;;;;;;4989755;28;20061;-80
2023/09/11 04:05:14;;;;;;;3.85;3.55;;;;;;;;;;4991255;28;20034;-82
2023/09/11 04:07:40;;;;;;;3.28;3.08;;;;;;;;;;4991190;28;20027;-81
2023/09/11 04:10:06;;;;;;;3.60;3.30;;;;;;;;;;4988376;28;20031;-80
2023/09/11 04:12:32;;;;;;;4.57;4.18;;;;;;;;;;5014170;28;20021;-81
2023/09/11 04:14:58;;;;;;;4.57;4.15;;;;;;;;;;5007684;28;20045;-81
2023/09/11 04:17:24;;;;;;;4.70;4.30;;;;;;;;;;5004600;28;20034;-82
2023/09/11 04:19:51;;;;;;;4.63;4.28;;;;;;;;;;4987848;28;20027;-81
2023/09/11 04:22:17;;;;;;;4.50;4.10;;;;;;;;;;4988387;28;20078;-80
2023/09/11 04:24:43;;;;;;;5.18;4.70;;;;;;;;;;5003043;28;20023;-80
2023/09/11 04:27:09;;;;;;;5.30;4.85;;;;;;;;;;5009368;28;20010;-83
2023/09/11 04:29:35;;;;;;;4.57;4.22;;;;;;;;;;5010889;28;20073;-82
2023/09/11 04:32:02;;;;;;;5.15;4.65;;;;;;;;;;5010149;28;20079;-79
2023/09/11 04:34:28;;;;;;;4.05;3.75;;;;;;;;;;5007658;28;20030;-80
2023/09/11 04:36:54;;;;;;;4.35;4.05;;;;;;;;;;5008360;28;20072;-80
2023/09/11 04:39:22;;;;;;;4.30;4.00;;;;;;;;;;5008718;28;20022;-80
2023/09/11 04:41:48;;;;;;;4.70;4.30;;;;;;;;;;5016898;28;20447;-80
2023/09/11 04:44:14;;;;;;;4.10;3.70;;;;;;;;;;5013107;28;20023;-79
2023/09/11 04:46:40;;;;;;;4.20;3.90;;;;;;;;;;5008279;28;20031;-79
2023/09/11 04:49:06;;;;;;;4.07;3.78;;;;;;;;;;5005954;28;20030;-79
2023/09/11 04:51:32;;;;;;;4.10;3.80;;;;;;;;;;5006834;28;20396;-80
2023/09/11 04:53:59;;;;;;;4.63;4.30;;;;;;;;;;5008728;28;20030;-80
2023/09/11 04:56:25;;;;;;;4.43;4.05;;;;;;;;;;4996040;28;20065;-79
2023/09/11 04:58:51;;;;;;;4.10;3.80;;;;;;;;;;4985057;28;20548;-80
2023/09/11 05:01:17;;;;;;;4.18;3.88;;;;;;;;;;4987160;28;20042;-79
2023/09/11 05:03:43;;;;;;;4.50;4.10;;;;;;;;;;4984813;28;20038;-78
2023/09/11 05:06:09;;;;;;;3.78;3.47;;;;;;;;;;4987190;28;20201;-78
2023/09/11 05:08:35;;;;;;;4.57;4.22;;;;;;;;;;4986109;28;20035;-79
2023/09/11 05:11:02;;;;;;;4.20;3.90;;;;;;;;;;5000597;28;19999;-79
2023/09/11 05:13:28;;;;;;;3.72;3.42;;;;;;;;;;5018076;28;20034;-78
2023/09/11 05:15:54;;;;;;;4.25;3.95;;;;;;;;;;5018645;28;20019;-78
2023/09/11 05:18:21;;;;;;;3.85;3.55;;;;;;;;;;5017279;28;20026;-79
2023/09/11 05:20:50;;;;;;;4.40;4.03;;;;;;;;;;5014207;28;20022;-80
2023/09/11 05:23:17;;;;;;;3.42;3.22;;;;;;;;;;5012512;28;20382;-78
2023/09/11 05:25:43;;;;;;;3.60;3.35;;;;;;;;;;5010823;28;20014;-79
2023/09/11 05:28:09;;;;;;;3.78;3.50;;;;;;;;;;5007605;28;20037;-79
2023/09/11 05:30:35;;;;;;;3.75;3.45;;;;;;;;;;5000859;28;20011;-78
2023/09/11 05:33:02;;;;;;;4.38;4.07;;;;;;;;;;4996833;28;20513;-79
2023/09/11 05:35:28;;;;;;;4.32;4.03;;;;;;;;;;4989177;28;20031;-78
2023/09/11 05:37:57;;;;;;;4.57;4.18;;;;;;;;;;4990917;28;20138;-81
2023/09/11 05:40:23;;;;;;;4.10;3.80;;;;;;;;;;4994128;28;20026;-79
2023/09/11 05:42:49;;;;;;;4.55;4.18;;;;;;;;;;5018129;28;20033;-80
2023/09/11 05:45:16;;;;;;;4.40;4.10;;;;;;;;;;5013636;28;20022;-80
2023/09/11 05:47:42;;;;;;;4.15;3.85;;;;;;;;;;5013630;28;20029;-79
2023/09/11 05:50:09;;;;;;;4.15;3.85;;;;;;;;;;5015624;28;20026;-80
2023/09/11 05:52:44;;;;;;;4.25;3.95;;;;;;;;;;5013070;28;20029;-80
2023/09/11 05:55:10;;;;;;;4.30;4.00;;;;;;;;;;5005509;28;20030;-78
2023/09/11 05:57:36;;;;;;;4.05;3.75;;;;;;;;;;5009217;28;20022;-78
2023/09/11 06:00:09;;;;;;;4.90;4.50;;;;;;;;;;4991465;28;20026;-78
2023/09/11 06:02:35;;;;;;;4.32;3.97;;;;;;;;;;5011037;28;20030;-79
2023/09/11 06:05:01;;;;;;;4.35;4.05;;;;;;;;;;5011884;28;20026;-78
2023/09/11 06:07:27;;;;;;;4.38;4.07;;;;;;;;;;5011537;28;20540;-79
2023/09/11 06:09:54;;;;;;;4.38;4.07;;;;;;;;;;5011216;28;20049;-78
2023/09/11 06:12:20;;;;;;;3.67;3.38;;;;;;;;;;5008046;28;20077;-78
2023/09/11 06:14:46;;;;;;;3.78;3.55;;;;;;;;;;5005077;28;20065;-77
2023/09/11 06:17:16;;;;;;;4.40;4.10;;;;;;;;;;4991305;28;20045;-78
2023/09/11 06:19:42;;;;;;;3.90;3.60;;;;;;;;;;5013470;28;20018;-78
2023/09/11 06:22:08;;;;;;;4.22;3.92;;;;;;;;;;4998126;28;20081;-78
2023/09/11 06:24:34;;;;;;;4.35;4.05;;;;;;;;;;5000488;28;20026;-80
2023/09/11 06:27:07;;;;;;;5.53;5.13;;;;;;;;;;5002525;28;20026;-78
2023/09/11 06:29:33;;;;;;;6.38;5.78;;;;;;;;;;5001633;28;20022;-78
2023/09/11 06:31:59;;;;;;;6.40;5.90;;;;;;;;;;5011096;28;20059;-78
2023/09/11 06:34:25;;;;;;;5.97;5.47;;;;;;;;;;5017709;28;20062;-79
2023/09/11 06:36:52;;;;;;;7.47;6.78;;;;;;;;;;5007174;28;20049;-79
2023/09/11 06:39:19;;;;;;;7.13;6.53;;;;;;;;;;4999557;28;20029;-78
2023/09/11 06:41:45;;;;;;;7.00;6.40;;;;;;;;;;5011800;28;20037;-78
2023/09/11 06:44:11;;;;;;;7.68;6.97;;;;;;;;;;5023036;28;20033;-80
2023/09/11 06:46:39;;;;;;;7.10;6.50;;;;;;;;;;5027492;28;20041;-79
2023/09/11 06:49:05;;;;;;;6.53;5.95;;;;;;;;;;5015441;28;20045;-81
2023/09/11 06:51:31;;;;;;;6.57;6.03;;;;;;;;;;5010810;28;20030;-82
2023/09/11 06:53:57;;;;;;;7.05;6.45;;;;;;;;;;5009310;28;20027;-82
2023/09/11 06:56:23;;;;;;;7.20;6.60;;;;;;;;;;5009346;28;20050;-80
2023/09/11 06:58:49;;;;;;;7.43;6.82;;;;;;;;;;5006744;28;20092;-81
2023/09/11 07:01:16;;;;;;;7.25;6.72;;;;;;;;;;5009379;28;20030;-82
2023/09/11 07:03:42;;;;;;;7.10;6.50;;;;;;;;;;5010617;28;20031;-82
2023/09/11 07:06:08;;;;;;;6.60;6.10;;;;;;;;;;5006817;28;20464;-80
2023/09/11 07:08:34;;;;;;;7.00;6.40;;;;;;;;;;5007958;28;20026;-80
2023/09/11 07:11:00;;;;;;;6.80;6.20;;;;;;;;;;5009895;28;20053;-81
2023/09/11 07:13:26;;;;;;;7.28;6.57;;;;;;;;;;5020422;28;20374;-81
2023/09/11 07:15:56;;;;;;;7.18;6.57;;;;;;;;;;5007507;28;20034;-82
2023/09/11 07:18:22;;;;;;;7.20;6.50;;;;;;;;;;5008059;28;20049;-81
2023/09/11 07:20:48;;;;;;;6.63;6.10;;;;;;;;;;5006148;28;20026;-81
2023/09/11 07:23:14;;;;;;;6.43;5.93;;;;;;;;;;4989675;28;20031;-81
2023/09/11 07:25:40;;;;;;;5.90;5.40;;;;;;;;;;4988222;28;20054;-81
2023/09/11 07:28:07;;;;;;;6.53;5.93;;;;;;;;;;4983457;28;20478;-80
2023/09/11 07:30:33;;;;;;;7.13;6.53;;;;;;;;;;4985334;28;20034;-80
2023/09/11 07:32:59;;;;;;;6.63;6.03;;;;;;;;;;4983518;28;20027;-80
2023/09/11 07:35:25;;;;;;;6.93;6.32;;;;;;;;;;4984535;28;20037;-82
2023/09/11 07:37:51;;;;;;;7.00;6.45;;;;;;;;;;4986263;28;20031;-82
2023/09/11 07:40:17;;;;;;;6.32;5.82;;;;;;;;;;4989634;28;20030;-81
2023/09/11 07:42:43;;;;;;;6.35;5.85;;;;;;;;;;4999149;28;20030;-79
2023/09/11 07:45:09;;;;;;;5.45;5.05;;;;;;;;;;5002069;28;20029;-79
2023/09/11 07:47:36;;;;;;;6.30;5.80;;;;;;;;;;5001545;28;20033;-82
2023/09/11 07:50:02;;;;;;;6.45;5.85;;;;;;;;;;5003475;28;20034;-81
2023/09/11 07:52:28;;;;;;;6.50;5.90;;;;;;;;;;5002326;28;20034;-82
2023/09/11 07:54:54;;;;;;;6.82;6.32;;;;;;;;;;5001578;28;20080;-80
2023/09/11 07:57:20;;;;;;;6.40;5.80;;;;;;;;;;5000531;28;20029;-81
2023/09/11 07:59:46;;;;;;;6.40;5.90;;;;;;;;;;5002812;28;20022;-81
2023/09/11 08:02:12;;;;;;;7.45;6.85;;;;;;;;;;5002014;28;20034;-79
2023/09/11 08:04:39;;;;;;;7.03;6.43;;;;;;;;;;5001708;28;20565;-81
2023/09/11 08:07:05;;;;;;;8.25;7.55;;;;;;;;;;5001157;28;20049;-81
2023/09/11 08:09:31;;;;;;;7.60;6.97;;;;;;;;;;5001835;28;20038;-80
2023/09/11 08:11:57;;;;;;;8.20;7.50;;;;;;;;;;5001575;28;21281;-80
2023/09/11 08:14:23;;;;;;;7.38;6.78;;;;;;;;;;5003995;28;20041;-82
2023/09/11 08:16:49;;;;;;;7.03;6.43;;;;;;;;;;5016910;28;20041;-81
2023/09/11 08:19:16;;;;;;;6.88;6.30;;;;;;;;;;5017011;28;20033;-82
2023/09/11 08:21:42;;;;;;;6.28;5.78;;;;;;;;;;5015058;28;20027;-82
2023/09/11 08:24:08;;;;;;;5.47;5.07;;;;;;;;;;5016458;28;20054;-81
2023/09/11 08:26:34;;;;;;;5.78;5.28;;;;;;;;;;5012946;28;20022;-82
2023/09/11 08:29:02;;;;;;;5.57;5.18;;;;;;;;;;4994090;28;20031;-81
2023/09/11 08:31:29;;;;;;;5.55;5.15;;;;;;;;;;5013861;28;20027;-80
2023/09/11 08:33:55;;;;;;;5.20;4.80;;;;;;;;;;5015156;28;20025;-79
2023/09/11 08:36:21;;;;;;;5.57;5.18;;;;;;;;;;5022475;28;20034;-77
2023/09/11 08:38:47;;;;;;;4.60;4.30;;;;;;;;;;5026633;28;20026;-80
2023/09/11 08:41:14;;;;;;;5.07;4.68;;;;;;;;;;4999469;28;20097;-78
2023/09/11 08:43:40;;;;;;;4.63;4.32;;;;;;;;;;4998193;28;20030;-79
2023/09/11 08:46:11;;;;;;;5.20;4.80;;;;;;;;;;4985466;28;20034;-81
2023/09/11 08:48:40;;;;;;;4.43;4.13;;;;;;;;;;4981521;28;20122;-79
2023/09/11 08:51:11;;;;;;;4.13;3.83;;;;;;;;;;4981815;28;20478;-78
2023/09/11 08:53:39;;;;;;;4.25;3.95;;;;;;;;;;4983636;28;20034;-77
2023/09/11 08:56:05;;;;;;;4.97;4.57;;;;;;;;;;4998963;28;20053;-80
2023/09/11 08:58:32;;;;;;;5.68;5.28;;;;;;;;;;4993202;28;20085;-78
2023/09/11 09:00:59;;;;;;;4.97;4.57;;;;;;;;;;4997412;28;20033;-80
2023/09/11 09:03:26;;;;;;;5.10;4.80;;;;;;;;;;4980547;28;20121;-81
2023/09/11 09:05:54;;;;;;;4.80;4.47;;;;;;;;;;4980515;28;20034;-81
2023/09/11 09:08:20;;;;;;;5.18;4.78;;;;;;;;;;4982451;28;20050;-85
2023/09/11 09:10:48;;;;;;;5.18;4.82;;;;;;;;;;4984062;28;20123;-82
2023/09/11 09:13:14;;;;;;;4.45;4.15;;;;;;;;;;4999729;28;20026;-83
2023/09/11 09:15:41;;;;;;;4.82;4.45;;;;;;;;;;5000716;28;20399;-82
2023/09/11 09:18:08;;;;;;;4.50;4.20;;;;;;;;;;4999441;28;20035;-84
2023/09/11 09:20:34;;;;;;;5.03;4.63;;;;;;;;;;5001404;28;20601;-81
2023/09/11 09:23:01;;;;;;;4.05;3.80;;;;;;;;;;5000852;28;20390;-80
2023/09/11 09:25:28;;;;;;;5.13;4.72;;;;;;;;;;5001387;28;20018;-82
2023/09/11 09:27:55;;;;;;;5.18;4.80;;;;;;;;;;5001709;28;20208;-82
2023/09/11 09:30:22;;;;;;;5.57;5.18;;;;;;;;;;5007490;28;20018;-84
2023/09/11 09:32:49;;;;;;;5.32;4.95;;;;;;;;;;5018802;28;20042;-85
2023/09/11 09:35:17;;;;;;;5.05;4.68;;;;;;;;;;5018938;28;20018;-83
2023/09/11 09:37:56;;;;;;;4.95;4.63;;;;;;;;;;5016603;28;20061;-85
2023/09/11 09:40:32;;;;;;;5.63;5.13;;;;;;;;;;5019236;28;20058;-81
2023/09/11 09:42:59;;;;;;;4.72;4.40;;;;;;;;;;5019164;28;20019;-82
2023/09/11 09:45:39;;;;;;;5.20;4.80;;;;;;;;;;5020425;28;20050;-82
2023/09/11 09:48:14;;;;;;;5.13;4.72;;;;;;;;;;5020054;28;20010;-85
2023/09/11 09:50:46;;;;;;;5.45;5.05;;;;;;;;;;5020622;28;20038;-80
2023/09/11 09:53:31;;;;;;;5.22;4.82;;;;;;;;;;5012577;28;20018;-79
2023/09/11 09:56:04;;;;;;;5.38;4.97;;;;;;;;;;4999163;28;20027;-80
2023/09/11 09:58:34;;;;;;;5.15;4.78;;;;;;;;;;4990549;28;20070;-79
2023/09/11 10:01:05;;;;;;;4.80;4.50;;;;;;;;;;4993596;28;20054;-78
2023/09/11 10:03:41;;;;;;;4.45;4.15;;;;;;;;;;4997538;28;20011;-82
2023/09/11 10:06:09;;;;;;;5.30;4.90;;;;;;;;;;4988458;28;20034;-78
2023/09/11 10:08:35;;;;;;;5.05;4.65;;;;;;;;;;4994479;28;20651;-80
2023/09/11 10:11:02;;;;;;;4.60;4.30;;;;;;;;;;5003472;28;20018;-81
2023/09/11 10:13:32;;;;;;;3.97;3.78;;;;;;;;;;5005660;28;20026;-80
2023/09/11 10:15:59;;;;;;;3.80;3.60;;;;;;;;;;4999785;28;20464;-79
2023/09/11 10:18:25;;;;;;;4.30;4.00;;;;;;;;;;5000816;28;20030;-78
2023/09/11 10:20:51;;;;;;;4.95;4.65;;;;;;;;;;4999647;28;20042;-81
2023/09/11 10:23:17;;;;;;;5.85;5.45;;;;;;;;;;4999919;28;20022;-80
2023/09/11 10:25:45;;;;;;;5.50;5.10;;;;;;;;;;4990898;28;20045;-81
2023/09/11 10:28:14;;;;;;;5.20;4.90;;;;;;;;;;5001203;28;20034;-81
2023/09/11 10:31:03;;;;;;;5.63;5.22;;;;;;;;;;4999580;28;20034;-80
2023/09/11 10:33:30;;;;;;;5.43;5.03;;;;;;;;;;4995766;28;20049;-79
2023/09/11 10:35:57;;;;;;;6.07;5.57;;;;;;;;;;4979638;28;20441;-78
2023/09/11 10:38:23;;;;;;;5.68;5.28;;;;;;;;;;4986372;28;20089;-78
2023/09/11 10:40:51;;;;;;;6.38;5.88;;;;;;;;;;4995824;28;20037;-78
2023/09/11 10:43:17;;;;;;;7.00;6.32;;;;;;;;;;5005757;28;20125;-78
2023/09/11 10:45:43;;;;;;;6.50;6.00;;;;;;;;;;5003865;28;20030;-78
2023/09/11 10:48:29;;;;;;;5.95;5.45;;;;;;;;;;5001843;28;20031;-79
2023/09/11 10:50:58;;;;;;;6.63;6.13;;;;;;;;;;4998377;28;20041;-80
2023/09/11 10:53:30;;;;;;;6.43;6.00;;;;;;;;;;4996395;28;20469;-81
2023/09/11 10:55:57;;;;;;;6.03;5.63;;;;;;;;;;4995244;28;20033;-81
2023/09/11 10:58:25;;;;;;;6.90;6.40;;;;;;;;;;4995226;28;20363;-79
2023/09/11 11:00:54;;;;;;;6.25;5.75;;;;;;;;;;4996475;28;20026;-79
2023/09/11 11:03:21;;;;;;;6.00;5.57;;;;;;;;;;4996327;28;20023;-79
2023/09/11 11:05:47;;;;;;;5.78;5.38;;;;;;;;;;4994425;28;20053;-80
2023/09/11 11:08:17;;;;;;;5.22;4.93;;;;;;;;;;4990994;28;20026;-79
2023/09/11 11:10:47;;;;;;;5.43;5.03;;;;;;;;;;4988964;28;20497;-77
2023/09/11 11:13:13;;;;;;;5.57;5.10;;;;;;;;;;5000094;28;20081;-78
2023/09/11 11:15:39;;;;;;;5.32;4.95;;;;;;;;;;5000176;28;20018;-80
2023/09/11 11:18:06;;;;;;;5.85;5.45;;;;;;;;;;4999894;28;20053;-80
2023/09/11 11:20:33;;;;;;;5.10;4.80;;;;;;;;;;4997892;28;20393;-77
2023/09/11 11:23:09;;;;;;;5.63;5.22;;;;;;;;;;4998791;28;20030;-78
2023/09/11 11:25:36;;;;;;;6.28;5.80;;;;;;;;;;4997905;28;20030;-79
2023/09/11 11:28:07;;;;;;;6.47;5.97;;;;;;;;;;5000549;28;20054;-77
2023/09/11 11:30:33;;;;;;;;;;;;;;;;;;4997771;28;20030;-79
2023/09/11 11:32:59;;;;;;;6.40;5.80;;;;;;;;;;5001977;28;19977;-79
2023/09/11 11:35:25;;;;;;;5.70;5.30;;;;;;;;;;5006571;28;20026;-78
2023/09/11 11:37:53;;;;;;;5.80;5.40;;;;;;;;;;5009878;28;20088;-79
2023/09/11 11:40:19;;;;;;;6.18;5.68;;;;;;;;;;4997919;28;20022;-80
2023/09/11 11:42:45;;;;;;;6.22;5.72;;;;;;;;;;4997384;28;20055;-78
2023/09/11 11:45:11;;;;;;;5.93;5.53;;;;;;;;;;4997505;28;20026;-81
2023/09/11 11:47:37;;;;;;;6.10;5.60;;;;;;;;;;4982560;28;20517;-80
2023/09/11 11:50:07;;;;;;;5.90;5.47;;;;;;;;;;4989643;28;20080;-79
2023/09/11 11:52:34;;;;;;;5.82;5.43;;;;;;;;;;4996570;28;20033;-80
2023/09/11 11:55:00;;;;;;;6.47;5.97;;;;;;;;;;4996463;28;20045;-81
2023/09/11 11:57:26;;;;;;;5.57;5.18;;;;;;;;;;4995779;28;20374;-80
2023/09/11 11:59:52;;;;;;;5.20;4.80;;;;;;;;;;4997133;28;20082;-79
2023/09/11 12:02:19;;;;;;;5.78;5.38;;;;;;;;;;4995221;28;20054;-80
2023/09/11 12:04:46;;;;;;;5.32;4.93;;;;;;;;;;4996747;28;20022;-81
2023/09/11 12:07:12;;;;;;;6.43;5.93;;;;;;;;;;4995754;28;20164;-80
2023/09/11 12:09:41;;;;;;;5.72;5.30;;;;;;;;;;5002162;28;20026;-78
2023/09/11 12:12:08;;;;;;;5.53;5.13;;;;;;;;;;5001221;28;20512;-80
2023/09/11 12:14:36;;;;;;;5.97;5.57;;;;;;;;;;5001698;28;20105;-81
2023/09/11 12:17:02;;;;;;;6.18;5.68;;;;;;;;;;4996361;28;20102;-80
2023/09/11 12:19:28;;;;;;;6.22;5.65;;;;;;;;;;4995198;28;20030;-79
2023/09/11 12:21:57;;;;;;;6.50;5.90;;;;;;;;;;4997038;28;20023;-78
2023/09/11 12:24:23;;;;;;;6.32;5.82;;;;;;;;;;4996980;28;20030;-81
2023/09/11 12:26:50;;;;;;;6.60;6.10;;;;;;;;;;4997102;28;20473;-79
2023/09/11 12:29:16;;;;;;;6.47;5.97;;;;;;;;;;4997399;28;20417;-80
2023/09/11 12:31:42;;;;;;;6.22;5.70;;;;;;;;;;4998137;28;20022;-80
2023/09/11 12:34:08;;;;;;;6.15;5.72;;;;;;;;;;4997404;28;20030;-79
2023/09/11 12:36:35;;;;;;;6.03;5.53;;;;;;;;;;4996386;28;20031;-81
2023/09/11 12:39:02;;;;;;;6.95;6.35;;;;;;;;;;4996614;28;20023;-78
2023/09/11 12:41:29;;;;;;;6.38;5.78;;;;;;;;;;4992660;28;20031;-78
2023/09/11 12:43:55;;;;;;;6.72;6.22;;;;;;;;;;4996383;28;20023;-80
2023/09/11 12:46:21;;;;;;;6.47;5.97;;;;;;;;;;4995504;28;20552;-79
2023/09/11 12:48:47;;;;;;;6.07;5.47;;;;;;;;;;4997411;28;20072;-80
2023/09/11 12:51:17;;;;;;;6.35;5.85;;;;;;;;;;4997867;28;20030;-77
2023/09/11 12:53:45;;;;;;;6.68;6.07;;;;;;;;;;4978494;28;20054;-81
2023/09/11 12:56:13;;;;;;;7.30;6.70;;;;;;;;;;4977255;28;20069;-78
2023/09/11 12:58:39;;;;;;;6.55;6.05;;;;;;;;;;4977055;28;20015;-81
2023/09/11 13:01:06;;;;;;;6.88;6.15;;;;;;;;;;4975795;28;20038;-79
2023/09/11 13:03:32;;;;;;;6.75;6.18;;;;;;;;;;4978563;28;20395;-81
2023/09/11 13:06:00;;;;;;;6.53;5.80;;;;;;;;;;4977143;28;20025;-80
2023/09/11 13:08:28;;;;;;;6.75;6.18;;;;;;;;;;4978313;28;20038;-80
2023/09/11 13:10:54;;;;;;;6.28;5.78;;;;;;;;;;4977726;28;20031;-80
2023/09/11 13:13:20;;;;;;;6.13;5.72;;;;;;;;;;5010508;28;20034;-79
2023/09/11 13:15:46;;;;;;;6.95;6.45;;;;;;;;;;4996291;28;20027;-82
2023/09/11 13:18:12;;;;;;;6.78;6.20;;;;;;;;;;4995686;28;20389;-82
2023/09/11 13:20:40;;;;;;;6.63;6.00;;;;;;;;;;4998153;28;20106;-78
2023/09/11 13:23:06;;;;;;;6.18;5.75;;;;;;;;;;4985333;28;20018;-78
2023/09/11 13:25:32;;;;;;;6.05;5.65;;;;;;;;;;4980833;28;20027;-79
2023/09/11 13:27:58;;;;;;;6.65;6.15;;;;;;;;;;4980174;28;20054;-81
2023/09/11 13:30:24;;;;;;;6.25;5.75;;;;;;;;;;4977251;28;20114;-79
2023/09/11 13:32:50;;;;;;;7.10;6.45;;;;;;;;;;4981962;28;20081;-80
2023/09/11 13:35:17;;;;;;;6.40;5.78;;;;;;;;;;4981502;28;20023;-78
2023/09/11 13:37:43;;;;;;;7.10;6.50;;;;;;;;;;4982023;28;20114;-80
2023/09/11 13:40:09;;;;;;;6.70;6.13;;;;;;;;;;4998364;28;20101;-79
2023/09/11 13:42:37;;;;;;;6.97;6.38;;;;;;;;;;4999627;28;20030;-80
2023/09/11 13:45:04;;;;;;;6.85;6.35;;;;;;;;;;4983138;28;20386;-78
2023/09/11 13:47:30;;;;;;;6.95;6.25;;;;;;;;;;4982950;28;20034;-78
2023/09/11 13:49:56;;;;;;;6.30;5.80;;;;;;;;;;4982403;28;20054;-78
2023/09/11 13:52:22;;;;;;;6.22;5.72;;;;;;;;;;4995464;28;20562;-77
2023/09/11 13:54:48;;;;;;;6.43;5.90;;;;;;;;;;4992193;28;20026;-79
2023/09/11 13:57:14;;;;;;;6.43;5.93;;;;;;;;;;4983381;28;20121;-78
2023/09/11 13:59:40;;;;;;;6.47;6.03;;;;;;;;;;4979660;28;20098;-78
2023/09/11 14:02:07;;;;;;;6.20;5.60;;;;;;;;;;4981896;28;20050;-77
2023/09/11 14:04:34;;;;;;;6.20;5.78;;;;;;;;;;4984403;28;20038;-77
2023/09/11 14:07:00;;;;;;;5.13;4.78;;;;;;;;;;4992800;28;20087;-80
2023/09/11 14:09:26;;;;;;;6.47;5.88;;;;;;;;;;4989701;28;20512;-81
2023/09/11 14:11:53;;;;;;;6.45;5.95;;;;;;;;;;5008301;28;20081;-79
2023/09/11 14:14:19;;;;;;;6.88;6.28;;;;;;;;;;5007855;28;20031;-79
2023/09/11 14:16:46;;;;;;;6.47;5.97;;;;;;;;;;5005775;28;20029;-81
2023/09/11 14:19:12;;;;;;;5.95;5.55;;;;;;;;;;5003497;28;20038;-79
2023/09/11 14:21:38;;;;;;;5.88;5.47;;;;;;;;;;5006734;28;20099;-81
2023/09/11 14:24:04;;;;;;;6.05;5.55;;;;;;;;;;5003345;28;20030;-79
2023/09/11 14:26:30;;;;;;;6.40;5.85;;;;;;;;;;5001232;28;20105;-79
2023/09/11 14:28:56;;;;;;;6.65;6.05;;;;;;;;;;5006715;28;20031;-79
2023/09/11 14:31:22;;;;;;;6.00;5.43;;;;;;;;;;5006189;28;20038;-79
2023/09/11 14:33:52;;;;;;;6.45;5.90;;;;;;;;;;4992539;28;20078;-79
2023/09/11 14:36:18;;;;;;;5.75;5.35;;;;;;;;;;4991837;28;20035;-79
2023/09/11 14:38:45;;;;;;;6.25;5.72;;;;;;;;;;4989885;28;20095;-79
2023/09/11 14:41:11;;;;;;;5.68;5.28;;;;;;;;;;4992576;28;20026;-80